sensor_id;sensor_type;location;lat;lon;timestamp;temperature;humidity
2453;DHT22;63678;47.994;7.854;2022-12-18T00:01:36;-5.00;99.90
2453;DHT22;63678;47.994;7.854;2022-12-18T00:04:20;-5.00;99.90
2453;DHT22;63678;47.994;7.854;2022-12-18T00:06:55;-4.90;99.90
2453;DHT22;63678;47.994;7.854;2022-12-18T00:09:27;-5.40;99.90
2453;DHT22;63678;47.994;7.854;2022-12-18T00:12:10;-5.50;99.90
2453;DHT22;63678;47.994;7.854;2022-12-18T00:14:46;-5.40;99.90
2453;DHT22;63678;47.994;7.854;2022-12-18T00:17:20;-5.40;99.90
2453;DHT22;63678;47.994;7.854;2022-12-18T00:19:53;-5.60;99.90
2453;DHT22;63678;47.994;7.854;2022-12-18T00:22:25;-5.60;99.90
2453;DHT22;63678;47.994;7.854;2022-12-18T00:24:57;-5.70;99.90
2453;DHT22;63678;47.994;7.854;2022-12-18T00:27:29;-5.70;99.90
2453;DHT22;63678;47.994;7.854;2022-12-18T00:30:02;-5.70;99.90
2453;DHT22;63678;47.994;7.854;2022-12-18T00:32:35;-5.70;99.90
2453;DHT22;63678;47.994;7.854;2022-12-18T00:35:08;-5.80;99.90
2453;DHT22;63678;47.994;7.854;2022-12-18T00:37:40;-5.70;99.90
2453;DHT22;63678;47.994;7.854;2022-12-18T00:40:13;-5.80;99.90
2453;DHT22;63678;47.994;7.854;2022-12-18T00:42:45;-5.60;99.90
2453;DHT22;63678;47.994;7.854;2022-12-18T00:45:30;-5.70;99.90
2453;DHT22;63678;47.994;7.854;2022-12-18T00:48:03;-5.80;99.90
2453;DHT22;63678;47.994;7.854;2022-12-18T00:50:36;-5.60;99.90
2453;DHT22;63678;47.994;7.854;2022-12-18T00:53:09;-5.60;99.90
2453;DHT22;63678;47.994;7.854;2022-12-18T00:55:41;-5.60;99.90
2453;DHT22;63678;47.994;7.854;2022-12-18T00:58:16;-5.60;99.90
2453;DHT22;63678;47.994;7.854;2022-12-18T01:00:48;-5.60;99.90
2453;DHT22;63678;47.994;7.854;2022-12-18T01:03:21;-5.60;99.90
2453;DHT22;63678;47.994;7.854;2022-12-18T01:05:53;-5.70;99.90
2453;DHT22;63678;47.994;7.854;2022-12-18T01:08:27;-5.80;99.90
2453;DHT22;63678;47.994;7.854;2022-12-18T01:13:33;-6.00;99.90
2453;DHT22;63678;47.994;7.854;2022-12-18T01:16:06;-5.90;99.90
2453;DHT22;63678;47.994;7.854;2022-12-18T01:18:39;-5.90;99.90
2453;DHT22;63678;47.994;7.854;2022-12-18T01:21:16;-6.00;99.90
2453;DHT22;63678;47.994;7.854;2022-12-18T01:23:54;-6.10;99.90
2453;DHT22;63678;47.994;7.854;2022-12-18T01:26:27;-6.10;99.90
2453;DHT22;63678;47.994;7.854;2022-12-18T01:29:01;-6.00;99.90
2453;DHT22;63678;47.994;7.854;2022-12-18T01:31:34;-6.10;99.90
2453;DHT22;63678;47.994;7.854;2022-12-18T01:34:06;-6.20;99.90
2453;DHT22;63678;47.994;7.854;2022-12-18T01:36:39;-6.10;99.90
2453;DHT22;63678;47.994;7.854;2022-12-18T01:39:14;-6.20;99.90
2453;DHT22;63678;47.994;7.854;2022-12-18T01:41:47;-6.30;99.90
2453;DHT22;63678;47.994;7.854;2022-12-18T01:53:17;-6.10;99.90
2453;DHT22;63678;47.994;7.854;2022-12-18T01:55:53;-6.20;99.90
2453;DHT22;63678;47.994;7.854;2022-12-18T02:01:30;-6.00;99.90
2453;DHT22;63678;47.994;7.854;2022-12-18T02:04:24;-6.10;99.90
2453;DHT22;63678;47.994;7.854;2022-12-18T02:07:09;-4.00;99.90
2453;DHT22;63678;47.994;7.854;2022-12-18T02:13:20;-6.10;99.90
2453;DHT22;63678;47.994;7.854;2022-12-18T02:19:47;-6.10;99.90
2453;DHT22;63678;47.994;7.854;2022-12-18T02:26:40;-6.10;99.90
2453;DHT22;63678;47.994;7.854;2022-12-18T02:29:04;-6.00;99.90
2453;DHT22;63678;47.994;7.854;2022-12-18T02:31:50;-5.90;99.90
2453;DHT22;63678;47.994;7.854;2022-12-18T02:34:28;-5.90;99.90
2453;DHT22;63678;47.994;7.854;2022-12-18T02:37:06;-5.90;99.90
2453;DHT22;63678;47.994;7.854;2022-12-18T02:39:43;-6.00;99.90
2453;DHT22;63678;47.994;7.854;2022-12-18T02:42:18;-5.80;99.90
2453;DHT22;63678;47.994;7.854;2022-12-18T02:44:55;-5.80;99.90
2453;DHT22;63678;47.994;7.854;2022-12-18T02:47:31;-5.80;99.90
2453;DHT22;63678;47.994;7.854;2022-12-18T02:53:24;-5.80;99.90
2453;DHT22;63678;47.994;7.854;2022-12-18T02:56:15;-5.90;99.90
2453;DHT22;63678;47.994;7.854;2022-12-18T02:59:06;-5.90;99.90
2453;DHT22;63678;47.994;7.854;2022-12-18T03:02:04;-5.60;99.90
2453;DHT22;63678;47.994;7.854;2022-12-18T03:05:16;-5.60;99.90
2453;DHT22;63678;47.994;7.854;2022-12-18T03:07:57;-5.50;99.90
2453;DHT22;63678;47.994;7.854;2022-12-18T03:11:15;-5.70;99.90
2453;DHT22;63678;47.994;7.854;2022-12-18T03:13:53;-5.70;99.90
2453;DHT22;63678;47.994;7.854;2022-12-18T03:16:29;-6.00;99.90
2453;DHT22;63678;47.994;7.854;2022-12-18T03:19:08;-6.20;99.90
2453;DHT22;63678;47.994;7.854;2022-12-18T03:21:50;-6.40;99.90
2453;DHT22;63678;47.994;7.854;2022-12-18T03:24:30;-6.50;99.90
2453;DHT22;63678;47.994;7.854;2022-12-18T03:27:10;-6.50;99.90
2453;DHT22;63678;47.994;7.854;2022-12-18T03:29:52;-6.50;99.90
2453;DHT22;63678;47.994;7.854;2022-12-18T03:32:36;-6.50;99.90
2453;DHT22;63678;47.994;7.854;2022-12-18T03:35:22;-6.60;99.90
2453;DHT22;63678;47.994;7.854;2022-12-18T03:37:59;-6.60;99.90
2453;DHT22;63678;47.994;7.854;2022-12-18T03:40:52;-6.70;99.90
2453;DHT22;63678;47.994;7.854;2022-12-18T03:49:32;-6.60;99.90
2453;DHT22;63678;47.994;7.854;2022-12-18T03:52:15;-6.40;99.90
2453;DHT22;63678;47.994;7.854;2022-12-18T03:54:52;-6.50;99.90
2453;DHT22;63678;47.994;7.854;2022-12-18T03:57:28;-6.60;99.90
2453;DHT22;63678;47.994;7.854;2022-12-18T04:00:12;-6.60;99.90
2453;DHT22;63678;47.994;7.854;2022-12-18T04:02:59;-6.60;99.90
2453;DHT22;63678;47.994;7.854;2022-12-18T04:05:40;-6.60;99.90
2453;DHT22;63678;47.994;7.854;2022-12-18T04:08:14;-6.90;99.90
2453;DHT22;63678;47.994;7.854;2022-12-18T04:10:54;-6.90;99.90
2453;DHT22;63678;47.994;7.854;2022-12-18T04:13:34;-6.90;99.90
2453;DHT22;63678;47.994;7.854;2022-12-18T04:16:11;-6.90;99.90
2453;DHT22;63678;47.994;7.854;2022-12-18T04:18:46;-6.90;99.90
2453;DHT22;63678;47.994;7.854;2022-12-18T04:21:19;-7.10;99.90
2453;DHT22;63678;47.994;7.854;2022-12-18T04:23:53;-6.90;99.90
2453;DHT22;63678;47.994;7.854;2022-12-18T04:26:27;-7.00;99.90
2453;DHT22;63678;47.994;7.854;2022-12-18T04:29:19;-7.10;99.90
2453;DHT22;63678;47.994;7.854;2022-12-18T04:31:52;-7.30;99.90
2453;DHT22;63678;47.994;7.854;2022-12-18T04:34:25;-7.20;99.90
2453;DHT22;63678;47.994;7.854;2022-12-18T04:36:58;-7.00;99.90
2453;DHT22;63678;47.994;7.854;2022-12-18T04:39:31;-7.20;99.90
2453;DHT22;63678;47.994;7.854;2022-12-18T04:42:09;-7.10;99.90
2453;DHT22;63678;47.994;7.854;2022-12-18T04:44:41;-7.10;99.90
2453;DHT22;63678;47.994;7.854;2022-12-18T04:47:14;-7.40;99.90
2453;DHT22;63678;47.994;7.854;2022-12-18T04:49:46;-7.60;99.90
2453;DHT22;63678;47.994;7.854;2022-12-18T04:52:18;-7.50;99.90
2453;DHT22;63678;47.994;7.854;2022-12-18T04:54:51;-7.60;99.90
2453;DHT22;63678;47.994;7.854;2022-12-18T04:57:23;-7.50;99.90
2453;DHT22;63678;47.994;7.854;2022-12-18T04:59:55;-7.50;99.90
2453;DHT22;63678;47.994;7.854;2022-12-18T05:02:28;-7.70;99.90
2453;DHT22;63678;47.994;7.854;2022-12-18T05:05:00;-7.70;99.90
2453;DHT22;63678;47.994;7.854;2022-12-18T05:07:33;-7.70;99.90
2453;DHT22;63678;47.994;7.854;2022-12-18T05:10:06;-7.70;99.90
2453;DHT22;63678;47.994;7.854;2022-12-18T05:12:39;-7.70;99.90
2453;DHT22;63678;47.994;7.854;2022-12-18T05:15:33;-7.70;99.90
2453;DHT22;63678;47.994;7.854;2022-12-18T05:18:08;-7.70;99.90
2453;DHT22;63678;47.994;7.854;2022-12-18T05:20:41;-7.80;99.90
2453;DHT22;63678;47.994;7.854;2022-12-18T05:23:13;-7.60;99.90
2453;DHT22;63678;47.994;7.854;2022-12-18T05:28:25;-7.60;99.90
2453;DHT22;63678;47.994;7.854;2022-12-18T05:31:00;-7.60;99.90
2453;DHT22;63678;47.994;7.854;2022-12-18T05:33:36;-7.70;99.90
2453;DHT22;63678;47.994;7.854;2022-12-18T05:36:09;-7.60;99.90
2453;DHT22;63678;47.994;7.854;2022-12-18T05:38:42;-7.60;99.90
2453;DHT22;63678;47.994;7.854;2022-12-18T05:41:14;-7.60;99.90
2453;DHT22;63678;47.994;7.854;2022-12-18T05:43:47;-7.50;99.90
2453;DHT22;63678;47.994;7.854;2022-12-18T05:46:19;-7.50;99.90
2453;DHT22;63678;47.994;7.854;2022-12-18T05:48:51;-6.70;99.90
2453;DHT22;63678;47.994;7.854;2022-12-18T05:51:23;-7.10;99.90
2453;DHT22;63678;47.994;7.854;2022-12-18T05:53:56;-7.40;99.90
2453;DHT22;63678;47.994;7.854;2022-12-18T05:56:28;-7.70;99.90
2453;DHT22;63678;47.994;7.854;2022-12-18T05:59:00;-7.80;99.90
2453;DHT22;63678;47.994;7.854;2022-12-18T06:01:33;-7.90;99.90
2453;DHT22;63678;47.994;7.854;2022-12-18T06:04:06;-8.00;99.90
2453;DHT22;63678;47.994;7.854;2022-12-18T06:06:38;-8.10;99.90
2453;DHT22;63678;47.994;7.854;2022-12-18T06:09:10;-8.00;99.90
2453;DHT22;63678;47.994;7.854;2022-12-18T06:11:43;-8.00;99.90
2453;DHT22;63678;47.994;7.854;2022-12-18T06:14:16;-8.00;99.90
2453;DHT22;63678;47.994;7.854;2022-12-18T06:16:50;-7.90;99.90
2453;DHT22;63678;47.994;7.854;2022-12-18T06:19:24;-7.90;99.90
2453;DHT22;63678;47.994;7.854;2022-12-18T06:21:56;-7.70;99.90
2453;DHT22;63678;47.994;7.854;2022-12-18T06:24:30;-7.70;99.90
2453;DHT22;63678;47.994;7.854;2022-12-18T06:27:03;-7.70;99.90
2453;DHT22;63678;47.994;7.854;2022-12-18T06:29:35;-7.50;99.90
2453;DHT22;63678;47.994;7.854;2022-12-18T06:32:08;-7.40;99.90
2453;DHT22;63678;47.994;7.854;2022-12-18T06:34:40;-7.40;99.90
2453;DHT22;63678;47.994;7.854;2022-12-18T06:37:13;-7.30;99.90
2453;DHT22;63678;47.994;7.854;2022-12-18T06:39:45;-7.20;99.90
2453;DHT22;63678;47.994;7.854;2022-12-18T06:42:17;-7.20;99.90
2453;DHT22;63678;47.994;7.854;2022-12-18T06:44:50;-7.10;99.90
2453;DHT22;63678;47.994;7.854;2022-12-18T06:47:26;-7.20;99.90
2453;DHT22;63678;47.994;7.854;2022-12-18T06:49:58;-7.50;99.90
2453;DHT22;63678;47.994;7.854;2022-12-18T06:52:32;-7.50;99.90
2453;DHT22;63678;47.994;7.854;2022-12-18T06:55:25;-7.60;99.90
2453;DHT22;63678;47.994;7.854;2022-12-18T06:57:57;-7.50;99.90
2453;DHT22;63678;47.994;7.854;2022-12-18T07:00:30;-7.50;99.90
2453;DHT22;63678;47.994;7.854;2022-12-18T07:03:02;-7.60;99.90
2453;DHT22;63678;47.994;7.854;2022-12-18T07:05:40;-7.50;99.90
2453;DHT22;63678;47.994;7.854;2022-12-18T07:08:12;-7.50;99.90
2453;DHT22;63678;47.994;7.854;2022-12-18T07:10:45;-7.40;99.90
2453;DHT22;63678;47.994;7.854;2022-12-18T07:13:21;-7.40;99.90
2453;DHT22;63678;47.994;7.854;2022-12-18T07:15:54;-7.40;99.90
2453;DHT22;63678;47.994;7.854;2022-12-18T07:18:27;-7.50;99.90
2453;DHT22;63678;47.994;7.854;2022-12-18T07:21:03;-7.50;99.90
2453;DHT22;63678;47.994;7.854;2022-12-18T07:23:37;-7.50;99.90
2453;DHT22;63678;47.994;7.854;2022-12-18T07:26:12;-7.50;99.90
2453;DHT22;63678;47.994;7.854;2022-12-18T07:28:44;-7.40;99.90
2453;DHT22;63678;47.994;7.854;2022-12-18T07:31:19;-7.20;99.90
2453;DHT22;63678;47.994;7.854;2022-12-18T07:33:53;-7.30;99.90
2453;DHT22;63678;47.994;7.854;2022-12-18T07:36:26;-7.40;99.90
2453;DHT22;63678;47.994;7.854;2022-12-18T07:38:58;-7.40;99.90
2453;DHT22;63678;47.994;7.854;2022-12-18T07:41:30;-7.40;99.90
2453;DHT22;63678;47.994;7.854;2022-12-18T07:44:12;-7.40;99.90
2453;DHT22;63678;47.994;7.854;2022-12-18T07:46:44;-7.40;99.90
2453;DHT22;63678;47.994;7.854;2022-12-18T07:49:17;-7.40;99.90
2453;DHT22;63678;47.994;7.854;2022-12-18T07:51:49;-7.40;99.90
2453;DHT22;63678;47.994;7.854;2022-12-18T07:54:22;-7.40;99.90
2453;DHT22;63678;47.994;7.854;2022-12-18T07:56:55;-7.30;99.90
2453;DHT22;63678;47.994;7.854;2022-12-18T07:59:27;-7.20;99.90
2453;DHT22;63678;47.994;7.854;2022-12-18T08:04:32;-7.20;99.90
2453;DHT22;63678;47.994;7.854;2022-12-18T08:07:04;-7.20;99.90
2453;DHT22;63678;47.994;7.854;2022-12-18T08:12:10;-7.20;99.90
2453;DHT22;63678;47.994;7.854;2022-12-18T08:14:42;-7.10;99.90
2453;DHT22;63678;47.994;7.854;2022-12-18T08:17:15;-6.90;99.90
2453;DHT22;63678;47.994;7.854;2022-12-18T08:19:48;-6.90;99.90
2453;DHT22;63678;47.994;7.854;2022-12-18T08:22:22;-7.00;99.90
2453;DHT22;63678;47.994;7.854;2022-12-18T08:24:55;-6.90;99.90
2453;DHT22;63678;47.994;7.854;2022-12-18T08:27:27;-6.80;99.90
2453;DHT22;63678;47.994;7.854;2022-12-18T08:30:01;-6.90;99.90
2453;DHT22;63678;47.994;7.854;2022-12-18T08:32:33;-7.10;99.90
2453;DHT22;63678;47.994;7.854;2022-12-18T08:35:06;-7.10;99.90
2453;DHT22;63678;47.994;7.854;2022-12-18T08:40:14;-6.80;99.90
2453;DHT22;63678;47.994;7.854;2022-12-18T08:42:47;-6.70;99.90
2453;DHT22;63678;47.994;7.854;2022-12-18T08:45:37;-6.50;99.90
2453;DHT22;63678;47.994;7.854;2022-12-18T08:48:10;-6.30;99.90
2453;DHT22;63678;47.994;7.854;2022-12-18T08:50:54;-6.20;99.90
2453;DHT22;63678;47.994;7.854;2022-12-18T08:53:30;-6.20;99.90
2453;DHT22;63678;47.994;7.854;2022-12-18T08:56:07;-6.10;99.90
2453;DHT22;63678;47.994;7.854;2022-12-18T08:58:40;-6.00;99.90
2453;DHT22;63678;47.994;7.854;2022-12-18T09:01:13;-5.80;99.90
2453;DHT22;63678;47.994;7.854;2022-12-18T09:03:47;-5.60;99.90
2453;DHT22;63678;47.994;7.854;2022-12-18T09:06:21;-5.40;99.90
2453;DHT22;63678;47.994;7.854;2022-12-18T09:08:54;-4.30;99.90
2453;DHT22;63678;47.994;7.854;2022-12-18T09:11:28;-4.30;99.90
2453;DHT22;63678;47.994;7.854;2022-12-18T09:14:01;1.40;99.90
2453;DHT22;63678;47.994;7.854;2022-12-18T09:16:34;-2.20;99.90
2453;DHT22;63678;47.994;7.854;2022-12-18T09:19:07;-2.60;99.90
2453;DHT22;63678;47.994;7.854;2022-12-18T09:21:39;-2.20;99.90
2453;DHT22;63678;47.994;7.854;2022-12-18T09:24:18;-2.10;99.90
2453;DHT22;63678;47.994;7.854;2022-12-18T09:26:54;-1.40;99.90
2453;DHT22;63678;47.994;7.854;2022-12-18T09:29:29;-1.50;99.90
2453;DHT22;63678;47.994;7.854;2022-12-18T09:32:01;-1.40;99.90
2453;DHT22;63678;47.994;7.854;2022-12-18T09:34:34;-1.50;99.90
2453;DHT22;63678;47.994;7.854;2022-12-18T09:37:07;-0.70;99.90
2453;DHT22;63678;47.994;7.854;2022-12-18T09:39:38;-1.30;99.90
2453;DHT22;63678;47.994;7.854;2022-12-18T09:42:22;-1.40;99.90
2453;DHT22;63678;47.994;7.854;2022-12-18T09:44:55;-1.40;99.90
2453;DHT22;63678;47.994;7.854;2022-12-18T09:47:34;-1.20;99.90
2453;DHT22;63678;47.994;7.854;2022-12-18T09:50:38;-1.30;99.90
2453;DHT22;63678;47.994;7.854;2022-12-18T09:53:15;-1.40;99.90
2453;DHT22;63678;47.994;7.854;2022-12-18T09:55:52;-1.50;99.90
2453;DHT22;63678;47.994;7.854;2022-12-18T09:58:41;-1.60;99.90
2453;DHT22;63678;47.994;7.854;2022-12-18T10:01:21;-1.50;99.90
2453;DHT22;63678;47.994;7.854;2022-12-18T10:03:55;-1.50;99.90
2453;DHT22;63678;47.994;7.854;2022-12-18T10:09:41;-1.60;99.90
2453;DHT22;63678;47.994;7.854;2022-12-18T10:12:26;-1.60;99.90
2453;DHT22;63678;47.994;7.854;2022-12-18T10:15:44;-1.50;99.90
2453;DHT22;63678;47.994;7.854;2022-12-18T10:21:36;-1.10;99.90
2453;DHT22;63678;47.994;7.854;2022-12-18T10:24:42;-0.20;99.90
2453;DHT22;63678;47.994;7.854;2022-12-18T10:27:23;-0.30;99.90
2453;DHT22;63678;47.994;7.854;2022-12-18T10:29:58;-0.40;99.90
2453;DHT22;63678;47.994;7.854;2022-12-18T10:32:31;-0.80;99.90
2453;DHT22;63678;47.994;7.854;2022-12-18T10:35:03;-1.00;99.90
2453;DHT22;63678;47.994;7.854;2022-12-18T10:38:01;-1.20;99.90
2453;DHT22;63678;47.994;7.854;2022-12-18T10:41:05;-0.70;99.90
2453;DHT22;63678;47.994;7.854;2022-12-18T10:43:43;-0.10;99.90
2453;DHT22;63678;47.994;7.854;2022-12-18T10:46:17;0.10;99.90
2453;DHT22;63678;47.994;7.854;2022-12-18T10:48:56;0.40;99.90
2453;DHT22;63678;47.994;7.854;2022-12-18T10:51:33;0.30;99.90
2453;DHT22;63678;47.994;7.854;2022-12-18T10:56:50;0.60;99.90
2453;DHT22;63678;47.994;7.854;2022-12-18T10:59:22;0.50;99.90
2453;DHT22;63678;47.994;7.854;2022-12-18T11:01:57;0.70;99.90
2453;DHT22;63678;47.994;7.854;2022-12-18T11:04:31;1.10;99.90
2453;DHT22;63678;47.994;7.854;2022-12-18T11:07:06;0.70;99.90
2453;DHT22;63678;47.994;7.854;2022-12-18T11:09:40;0.10;99.90
2453;DHT22;63678;47.994;7.854;2022-12-18T11:12:19;0.20;99.90
2453;DHT22;63678;47.994;7.854;2022-12-18T11:14:55;-0.10;99.90
2453;DHT22;63678;47.994;7.854;2022-12-18T11:17:32;-0.10;99.90
2453;DHT22;63678;47.994;7.854;2022-12-18T11:20:30;0.10;99.90
2453;DHT22;63678;47.994;7.854;2022-12-18T11:23:12;0.10;99.90
2453;DHT22;63678;47.994;7.854;2022-12-18T11:25:54;0.10;99.90
2453;DHT22;63678;47.994;7.854;2022-12-18T11:28:44;0.10;99.90
2453;DHT22;63678;47.994;7.854;2022-12-18T11:31:25;-0.20;99.90
2453;DHT22;63678;47.994;7.854;2022-12-18T11:34:06;0.00;99.90
2453;DHT22;63678;47.994;7.854;2022-12-18T11:37:02;-0.10;99.90
2453;DHT22;63678;47.994;7.854;2022-12-18T11:39:49;0.10;99.90
2453;DHT22;63678;47.994;7.854;2022-12-18T11:42:48;0.40;99.90
2453;DHT22;63678;47.994;7.854;2022-12-18T11:45:29;0.30;99.90
2453;DHT22;63678;47.994;7.854;2022-12-18T11:48:16;0.50;99.90
2453;DHT22;63678;47.994;7.854;2022-12-18T11:50:53;0.60;99.90
2453;DHT22;63678;47.994;7.854;2022-12-18T11:53:28;0.60;99.90
2453;DHT22;63678;47.994;7.854;2022-12-18T11:59:43;-0.20;99.90
2453;DHT22;63678;47.994;7.854;2022-12-18T12:02:42;-0.40;99.90
2453;DHT22;63678;47.994;7.854;2022-12-18T12:05:29;-0.30;99.90
2453;DHT22;63678;47.994;7.854;2022-12-18T12:08:41;-0.60;99.90
2453;DHT22;63678;47.994;7.854;2022-12-18T12:16:09;-0.40;99.90
2453;DHT22;63678;47.994;7.854;2022-12-18T12:29:22;0.10;99.90
2453;DHT22;63678;47.994;7.854;2022-12-18T12:41:07;-0.40;99.90
2453;DHT22;63678;47.994;7.854;2022-12-18T12:44:05;-0.40;99.90
2453;DHT22;63678;47.994;7.854;2022-12-18T12:46:42;-0.40;99.90
2453;DHT22;63678;47.994;7.854;2022-12-18T12:49:19;-0.30;99.90
2453;DHT22;63678;47.994;7.854;2022-12-18T12:52:06;-0.30;99.90
2453;DHT22;63678;47.994;7.854;2022-12-18T12:54:40;-0.30;99.90
2453;DHT22;63678;47.994;7.854;2022-12-18T12:57:47;-0.30;99.90
2453;DHT22;63678;47.994;7.854;2022-12-18T13:01:00;-0.40;99.90
2453;DHT22;63678;47.994;7.854;2022-12-18T13:04:16;-0.40;99.90
2453;DHT22;63678;47.994;7.854;2022-12-18T13:07:06;-0.40;99.90
2453;DHT22;63678;47.994;7.854;2022-12-18T13:15:43;-0.30;99.90
2453;DHT22;63678;47.994;7.854;2022-12-18T13:18:22;-0.40;99.90
2453;DHT22;63678;47.994;7.854;2022-12-18T13:23:36;-0.30;99.90
2453;DHT22;63678;47.994;7.854;2022-12-18T13:29:01;-0.40;99.90
2453;DHT22;63678;47.994;7.854;2022-12-18T13:34:23;-0.40;99.90
2453;DHT22;63678;47.994;7.854;2022-12-18T13:37:39;-0.40;99.90
2453;DHT22;63678;47.994;7.854;2022-12-18T13:40:53;-0.40;99.90
2453;DHT22;63678;47.994;7.854;2022-12-18T13:43:45;-0.30;99.90
2453;DHT22;63678;47.994;7.854;2022-12-18T13:46:21;-0.30;99.90
2453;DHT22;63678;47.994;7.854;2022-12-18T13:51:51;-0.50;99.90
2453;DHT22;63678;47.994;7.854;2022-12-18T13:57:28;-0.50;99.90
2453;DHT22;63678;47.994;7.854;2022-12-18T14:02:58;-0.60;99.90
2453;DHT22;63678;47.994;7.854;2022-12-18T14:05:35;-0.70;99.90
2453;DHT22;63678;47.994;7.854;2022-12-18T14:08:14;-0.60;99.90
2453;DHT22;63678;47.994;7.854;2022-12-18T14:10:48;-0.60;99.90
2453;DHT22;63678;47.994;7.854;2022-12-18T14:16:14;-0.60;99.90
2453;DHT22;63678;47.994;7.854;2022-12-18T14:18:57;-0.60;99.90
2453;DHT22;63678;47.994;7.854;2022-12-18T14:21:50;-0.60;99.90
2453;DHT22;63678;47.994;7.854;2022-12-18T14:24:23;-0.80;99.90
2453;DHT22;63678;47.994;7.854;2022-12-18T14:27:17;-0.80;99.90
2453;DHT22;63678;47.994;7.854;2022-12-18T14:29:54;-0.80;99.90
2453;DHT22;63678;47.994;7.854;2022-12-18T14:32:26;-0.80;99.90
2453;DHT22;63678;47.994;7.854;2022-12-18T14:35:13;-0.70;99.90
2453;DHT22;63678;47.994;7.854;2022-12-18T14:40:45;-0.80;99.90
2453;DHT22;63678;47.994;7.854;2022-12-18T14:43:17;-0.90;99.90
2453;DHT22;63678;47.994;7.854;2022-12-18T14:45:51;-0.90;99.90
2453;DHT22;63678;47.994;7.854;2022-12-18T14:48:41;-1.10;99.90
2453;DHT22;63678;47.994;7.854;2022-12-18T14:51:19;-0.80;99.90
2453;DHT22;63678;47.994;7.854;2022-12-18T14:53:58;-0.80;99.90
2453;DHT22;63678;47.994;7.854;2022-12-18T14:56:36;-0.80;99.90
2453;DHT22;63678;47.994;7.854;2022-12-18T14:59:17;-0.70;99.90
2453;DHT22;63678;47.994;7.854;2022-12-18T15:02:25;-0.80;99.90
2453;DHT22;63678;47.994;7.854;2022-12-18T15:07:45;-0.90;99.90
2453;DHT22;63678;47.994;7.854;2022-12-18T15:10:24;-1.10;99.90
2453;DHT22;63678;47.994;7.854;2022-12-18T15:20:45;-0.90;99.90
2453;DHT22;63678;47.994;7.854;2022-12-18T15:23:24;-0.90;99.90
2453;DHT22;63678;47.994;7.854;2022-12-18T15:38:58;-1.10;99.90
2453;DHT22;63678;47.994;7.854;2022-12-18T15:41:37;-1.20;99.90
2453;DHT22;63678;47.994;7.854;2022-12-18T15:44:23;-1.20;99.90
2453;DHT22;63678;47.994;7.854;2022-12-18T15:46:56;-1.30;99.90
2453;DHT22;63678;47.994;7.854;2022-12-18T15:49:28;-1.30;99.90
2453;DHT22;63678;47.994;7.854;2022-12-18T15:52:02;-1.30;99.90
2453;DHT22;63678;47.994;7.854;2022-12-18T15:54:35;-1.30;99.90
2453;DHT22;63678;47.994;7.854;2022-12-18T15:57:26;-1.20;99.90
2453;DHT22;63678;47.994;7.854;2022-12-18T15:59:58;-1.30;99.90
2453;DHT22;63678;47.994;7.854;2022-12-18T16:02:30;-1.30;99.90
2453;DHT22;63678;47.994;7.854;2022-12-18T16:05:05;-1.30;99.90
2453;DHT22;63678;47.994;7.854;2022-12-18T16:07:44;-1.40;99.90
2453;DHT22;63678;47.994;7.854;2022-12-18T16:10:18;-1.20;99.90
2453;DHT22;63678;47.994;7.854;2022-12-18T16:12:50;-1.10;99.90
2453;DHT22;63678;47.994;7.854;2022-12-18T16:15:23;-1.20;99.90
2453;DHT22;63678;47.994;7.854;2022-12-18T16:17:56;-1.10;99.90
2453;DHT22;63678;47.994;7.854;2022-12-18T16:20:28;-1.00;99.90
2453;DHT22;63678;47.994;7.854;2022-12-18T16:23:00;-0.90;99.90
2453;DHT22;63678;47.994;7.854;2022-12-18T16:25:33;-0.90;99.90
2453;DHT22;63678;47.994;7.854;2022-12-18T16:28:05;-0.90;99.90
2453;DHT22;63678;47.994;7.854;2022-12-18T16:30:38;-0.80;99.90
2453;DHT22;63678;47.994;7.854;2022-12-18T16:33:11;-0.60;99.90
2453;DHT22;63678;47.994;7.854;2022-12-18T16:35:51;-0.90;99.90
2453;DHT22;63678;47.994;7.854;2022-12-18T16:38:27;-0.80;99.90
2453;DHT22;63678;47.994;7.854;2022-12-18T16:40:59;-0.80;99.90
2453;DHT22;63678;47.994;7.854;2022-12-18T16:43:54;-0.60;99.90
2453;DHT22;63678;47.994;7.854;2022-12-18T16:46:27;-0.70;99.90
2453;DHT22;63678;47.994;7.854;2022-12-18T16:49:00;-0.70;99.90
2453;DHT22;63678;47.994;7.854;2022-12-18T16:51:32;-0.70;99.90
2453;DHT22;63678;47.994;7.854;2022-12-18T16:54:07;-0.80;99.90
2453;DHT22;63678;47.994;7.854;2022-12-18T16:56:45;-0.80;99.90
2453;DHT22;63678;47.994;7.854;2022-12-18T16:59:21;-0.80;99.90
2453;DHT22;63678;47.994;7.854;2022-12-18T17:01:54;-0.80;99.90
2453;DHT22;63678;47.994;7.854;2022-12-18T17:04:28;-0.80;99.90
2453;DHT22;63678;47.994;7.854;2022-12-18T17:07:01;-0.60;99.90
2453;DHT22;63678;47.994;7.854;2022-12-18T17:09:35;-0.70;99.90
2453;DHT22;63678;47.994;7.854;2022-12-18T17:12:08;-0.70;99.90
2453;DHT22;63678;47.994;7.854;2022-12-18T17:14:40;-0.60;99.90
2453;DHT22;63678;47.994;7.854;2022-12-18T17:17:13;-0.70;99.90
2453;DHT22;63678;47.994;7.854;2022-12-18T17:19:55;-0.70;99.90
2453;DHT22;63678;47.994;7.854;2022-12-18T17:22:27;-0.60;99.90
2453;DHT22;63678;47.994;7.854;2022-12-18T17:24:59;-0.60;99.90
2453;DHT22;63678;47.994;7.854;2022-12-18T17:27:32;-0.60;99.90
2453;DHT22;63678;47.994;7.854;2022-12-18T17:30:05;-0.60;99.90
2453;DHT22;63678;47.994;7.854;2022-12-18T17:32:37;-0.80;99.90
2453;DHT22;63678;47.994;7.854;2022-12-18T17:35:10;-0.80;99.90
2453;DHT22;63678;47.994;7.854;2022-12-18T17:37:42;-0.60;99.90
2453;DHT22;63678;47.994;7.854;2022-12-18T17:40:14;-0.60;99.90
2453;DHT22;63678;47.994;7.854;2022-12-18T17:45:19;-0.50;99.90
2453;DHT22;63678;47.994;7.854;2022-12-18T17:47:52;-0.90;99.90
2453;DHT22;63678;47.994;7.854;2022-12-18T17:50:34;-0.90;99.90
2453;DHT22;63678;47.994;7.854;2022-12-18T17:53:07;-0.80;99.90
2453;DHT22;63678;47.994;7.854;2022-12-18T17:55:39;-0.90;99.90
2453;DHT22;63678;47.994;7.854;2022-12-18T17:58:11;-0.90;99.90
2453;DHT22;63678;47.994;7.854;2022-12-18T18:00:44;-0.90;99.90
2453;DHT22;63678;47.994;7.854;2022-12-18T18:03:16;-0.80;99.90
2453;DHT22;63678;47.994;7.854;2022-12-18T18:05:57;-0.80;99.90
2453;DHT22;63678;47.994;7.854;2022-12-18T18:08:30;-0.80;99.90
2453;DHT22;63678;47.994;7.854;2022-12-18T18:11:09;-0.80;99.90
2453;DHT22;63678;47.994;7.854;2022-12-18T18:14:20;-0.70;99.90
2453;DHT22;63678;47.994;7.854;2022-12-18T18:16:52;-0.70;99.90
2453;DHT22;63678;47.994;7.854;2022-12-18T18:19:26;-0.70;99.90
2453;DHT22;63678;47.994;7.854;2022-12-18T18:21:59;-0.70;99.90
2453;DHT22;63678;47.994;7.854;2022-12-18T18:24:33;-0.70;99.90
2453;DHT22;63678;47.994;7.854;2022-12-18T18:27:05;-0.70;99.90
2453;DHT22;63678;47.994;7.854;2022-12-18T18:29:38;-0.70;99.90
2453;DHT22;63678;47.994;7.854;2022-12-18T18:32:11;-0.70;99.90
2453;DHT22;63678;47.994;7.854;2022-12-18T18:34:43;-0.60;99.90
2453;DHT22;63678;47.994;7.854;2022-12-18T18:37:16;-0.60;99.90
2453;DHT22;63678;47.994;7.854;2022-12-18T18:39:48;-0.70;99.90
2453;DHT22;63678;47.994;7.854;2022-12-18T18:42:20;-0.80;99.90
2453;DHT22;63678;47.994;7.854;2022-12-18T18:44:53;-0.80;99.90
2453;DHT22;63678;47.994;7.854;2022-12-18T18:47:28;-0.80;99.90
2453;DHT22;63678;47.994;7.854;2022-12-18T18:50:01;-0.80;99.90
2453;DHT22;63678;47.994;7.854;2022-12-18T18:52:33;-0.70;99.90
2453;DHT22;63678;47.994;7.854;2022-12-18T18:55:09;-0.60;99.90
2453;DHT22;63678;47.994;7.854;2022-12-18T18:57:56;-0.60;99.90
2453;DHT22;63678;47.994;7.854;2022-12-18T19:00:29;-0.60;99.90
2453;DHT22;63678;47.994;7.854;2022-12-18T19:03:02;-0.70;99.90
2453;DHT22;63678;47.994;7.854;2022-12-18T19:05:35;-0.70;99.90
2453;DHT22;63678;47.994;7.854;2022-12-18T19:08:08;-0.80;99.90
2453;DHT22;63678;47.994;7.854;2022-12-18T19:10:41;-0.40;99.90